createdAt,value
2018-05-18T06:25:29.096Z,10.90
2018-05-18T06:26:29.680Z,13.20
2018-05-18T06:27:30.251Z,12.40
2018-05-18T06:28:30.829Z,13.10
2018-05-18T06:29:31.452Z,12.00
2018-05-18T06:30:32.079Z,12.70
2018-05-18T06:32:32.935Z,12.50
2018-05-18T06:33:33.577Z,12.50
2018-05-18T06:34:34.184Z,13.00
2018-05-18T06:35:34.820Z,13.50
2018-05-18T06:36:35.444Z,12.50
2018-05-18T06:37:36.073Z,12.40
2018-05-18T06:38:36.680Z,11.60
2018-05-18T06:39:37.317Z,12.70
2018-05-18T06:40:37.902Z,12.70
2018-05-18T06:41:38.564Z,11.30
2018-05-18T06:42:39.171Z,13.00
2018-05-18T06:44:40.016Z,12.10
2018-05-18T06:45:40.582Z,12.00
2018-05-18T06:46:41.280Z,11.80
2018-05-18T06:47:41.952Z,11.40
2018-05-18T06:48:42.540Z,12.00
2018-05-18T06:50:43.511Z,11.60
2018-05-18T06:51:44.147Z,11.90
2018-05-18T06:52:44.740Z,11.80
2018-05-18T06:53:45.433Z,12.10
2018-05-18T06:54:46.104Z,12.20
2018-05-18T06:55:46.709Z,12.80
2018-05-18T06:56:47.296Z,11.70
2018-05-18T06:57:47.897Z,12.00
2018-05-18T06:58:48.549Z,12.00
2018-05-18T06:59:49.136Z,11.70
2018-05-18T07:00:49.747Z,12.40
2018-05-18T07:01:50.408Z,12.30
2018-05-18T07:02:50.983Z,12.60
2018-05-18T07:03:51.632Z,10.90
2018-05-18T07:04:53.101Z,12.50
2018-05-18T07:05:53.754Z,12.30
2018-05-18T07:06:54.363Z,12.00
2018-05-18T07:07:54.996Z,11.70
2018-05-18T07:08:55.597Z,11.70
2018-05-18T07:09:56.257Z,12.40
2018-05-18T07:10:56.845Z,12.40
2018-05-18T07:13:10.436Z,12.40
2018-05-18T07:14:11.060Z,12.80
2018-05-18T07:15:11.650Z,11.30
2018-05-18T07:16:12.230Z,11.90
2018-05-18T07:18:13.094Z,11.60
2018-05-18T07:19:13.761Z,11.90
2018-05-18T07:20:15.446Z,12.50
2018-05-18T07:21:16.088Z,11.90
2018-05-18T07:22:16.740Z,12.30
2018-05-18T07:23:17.313Z,12.30
2018-05-18T07:25:18.207Z,11.40
2018-05-18T07:26:19.809Z,12.10
2018-05-18T07:27:20.438Z,12.80
2018-05-18T07:28:21.063Z,12.20
2018-05-18T07:29:21.707Z,12.60
2018-05-18T07:30:22.334Z,13.20
2018-05-18T07:32:23.214Z,11.10
2018-05-18T07:33:24.109Z,11.30
2018-05-18T07:34:25.193Z,11.90
2018-05-18T07:35:26.878Z,11.60
2018-05-18T07:36:28.664Z,12.20
2018-05-18T07:37:30.867Z,11.60
2018-05-18T07:38:36.720Z,11.20
2018-05-18T07:39:38.629Z,12.20
2018-05-18T07:40:39.373Z,12.30
2018-05-18T07:41:39.991Z,12.20
2018-05-18T07:42:40.642Z,12.90
2018-05-18T07:43:41.255Z,11.50
2018-05-18T07:44:41.875Z,11.90
2018-05-18T07:45:42.604Z,12.50
2018-05-18T07:46:43.250Z,12.20
2018-05-18T07:47:43.857Z,11.90
2018-05-18T07:48:44.546Z,12.30
2018-05-18T07:49:45.179Z,11.70
2018-05-18T07:50:45.801Z,11.60
2018-05-18T07:51:46.457Z,11.90
2018-05-18T07:52:47.111Z,11.80
2018-05-18T07:53:47.816Z,12.20
2018-05-18T07:54:48.598Z,12.70
2018-05-18T07:55:49.221Z,12.10
2018-05-18T07:56:49.820Z,24.10
2018-05-18T07:57:50.442Z,24.90
2018-05-18T07:58:51.160Z,12.70
2018-05-18T07:59:51.779Z,12.30
2018-05-18T08:00:52.342Z,12.30
2018-05-18T08:02:04.833Z,12.60
2018-05-18T08:03:05.432Z,12.70
2018-05-18T08:04:06.078Z,12.20
2018-05-18T08:05:09.381Z,11.40
2018-05-18T08:06:13.360Z,12.30
2018-05-18T08:07:18.014Z,12.30
2018-05-18T08:08:23.595Z,12.30
2018-05-18T08:09:28.891Z,11.80
2018-05-18T08:10:39.235Z,11.80
2018-05-18T08:11:45.276Z,12.30
2018-05-18T08:12:52.182Z,12.30
2018-05-18T08:13:53.890Z,11.90
2018-05-18T08:14:54.555Z,11.80
2018-05-18T08:15:55.168Z,12.50
2018-05-18T08:16:55.791Z,11.90
2018-05-18T08:18:02.481Z,11.70
2018-05-18T08:19:03.154Z,12.00
2018-05-18T08:21:04.018Z,12.10
2018-05-18T08:22:04.606Z,12.40
2018-05-18T08:23:05.199Z,11.30
2018-05-18T08:24:05.866Z,11.10
2018-05-18T08:25:06.486Z,11.60
2018-05-18T08:26:07.091Z,11.60
2018-05-18T08:27:07.758Z,11.40
2018-05-18T08:28:08.321Z,11.50
2018-05-18T08:29:08.964Z,11.30
2018-05-18T08:30:09.569Z,11.30
2018-05-18T08:31:10.835Z,11.10
2018-05-18T08:32:11.495Z,11.90
2018-05-18T08:33:12.108Z,11.30
2018-05-18T08:34:12.726Z,11.20
2018-05-18T08:35:14.110Z,11.60
2018-05-18T08:37:15.034Z,11.50
2018-05-18T08:38:29.343Z,10.60
2018-05-18T08:39:29.924Z,11.40
2018-05-18T08:40:34.709Z,11.10
2018-05-18T08:41:46.964Z,11.10
2018-05-18T08:42:47.560Z,11.50
2018-05-18T08:43:48.172Z,11.50
2018-05-18T08:44:48.843Z,11.40
2018-05-18T08:45:49.495Z,11.00
2018-05-18T08:47:11.488Z,11.60
2018-05-18T08:48:14.253Z,11.40
2018-05-18T08:49:14.851Z,11.80
2018-05-18T08:50:15.609Z,12.40
2018-05-18T08:52:19.417Z,11.70
2018-05-18T08:53:25.337Z,11.70
2018-05-18T08:54:25.935Z,11.10
2018-05-18T08:55:26.606Z,11.00
2018-05-18T08:56:27.200Z,10.90
2018-05-18T08:57:27.786Z,10.40
2018-05-18T08:58:28.427Z,11.00
2018-05-18T08:59:29.029Z,10.30
2018-05-18T09:00:29.665Z,10.40
2018-05-18T09:01:30.296Z,10.40
2018-05-18T09:02:30.940Z,10.00
2018-05-18T09:03:31.588Z,9.90
2018-05-18T09:04:32.220Z,10.60
2018-05-18T09:05:32.830Z,10.30
2018-05-18T09:06:33.423Z,9.80
2018-05-18T09:08:16.419Z,8.70
2018-05-18T09:09:16.997Z,11.40
2018-05-18T09:10:17.628Z,10.40
2018-05-18T09:11:18.227Z,10.80
2018-05-18T09:13:24.507Z,11.20
2018-05-18T09:14:27.394Z,10.50
2018-05-18T09:15:40.627Z,10.90
2018-05-18T09:16:41.203Z,10.70
2018-05-18T09:17:41.797Z,11.20
2018-05-18T09:18:42.399Z,10.80
2018-05-18T09:19:42.972Z,10.90
2018-05-18T09:20:43.578Z,11.10
2018-05-18T09:21:44.253Z,10.80
2018-05-18T09:22:44.800Z,10.50
2018-05-18T09:23:45.358Z,10.40
2018-05-18T09:24:49.379Z,10.40
2018-05-18T09:25:49.962Z,10.40
2018-05-18T09:27:01.454Z,10.60
2018-05-18T09:28:02.085Z,10.60
2018-05-18T09:29:05.408Z,10.60
2018-05-18T09:30:06.024Z,10.50
2018-05-18T09:31:06.685Z,10.20
2018-05-18T09:32:07.255Z,10.40
2018-05-18T09:33:12.827Z,9.80
2018-05-18T09:34:13.489Z,10.00
2018-05-18T09:35:14.706Z,10.70
2018-05-18T09:36:15.370Z,9.80
2018-05-18T09:37:15.995Z,10.30
2018-05-18T09:39:16.859Z,9.90
2018-05-18T09:40:17.447Z,11.00
2018-05-18T09:41:18.070Z,11.20
2018-05-18T09:42:18.734Z,10.60
2018-05-18T09:43:26.582Z,10.40
2018-05-18T09:44:30.317Z,10.90
2018-05-18T09:45:30.882Z,11.20
2018-05-18T09:46:32.046Z,10.30
2018-05-18T09:47:32.621Z,10.10
2018-05-18T09:48:33.813Z,10.70
2018-05-18T09:49:34.450Z,10.30
2018-05-18T09:51:35.333Z,9.60
2018-05-18T09:52:35.944Z,9.70
2018-05-18T09:54:36.957Z,9.70
2018-05-18T09:55:38.547Z,9.20
2018-05-18T09:56:39.165Z,9.80
2018-05-18T09:57:39.770Z,9.50
2018-05-18T09:58:56.085Z,10.10
2018-05-18T09:59:56.666Z,9.10
2018-05-18T10:00:57.308Z,9.20
2018-05-18T10:01:57.903Z,9.80
2018-05-18T10:02:58.509Z,9.20
2018-05-18T10:03:59.097Z,9.30
2018-05-18T10:05:59.972Z,9.60
2018-05-18T10:07:00.589Z,10.00
2018-05-18T10:08:01.206Z,10.10
2018-05-18T10:09:02.502Z,9.10
2018-05-18T10:10:03.166Z,9.70
2018-05-18T10:11:03.813Z,9.80
2018-05-18T10:12:04.426Z,9.70
2018-05-18T10:14:05.332Z,10.50
2018-05-18T10:15:05.954Z,9.50
2018-05-18T10:16:06.588Z,9.30
2018-05-18T10:17:07.199Z,9.50
2018-05-18T10:18:07.780Z,9.60
2018-05-18T10:19:08.594Z,9.70
2018-05-18T10:20:09.171Z,9.80
2018-05-18T10:21:09.811Z,9.70
2018-05-18T10:22:10.414Z,9.60
2018-05-18T10:23:11.022Z,10.10
2018-05-18T10:25:11.923Z,9.60
2018-05-18T10:26:12.533Z,9.20
2018-05-18T10:27:13.129Z,9.50
2018-05-18T10:28:14.305Z,9.00
2018-05-18T10:29:14.951Z,9.60
2018-05-18T10:30:15.530Z,9.70
2018-05-18T10:31:16.153Z,9.50
2018-05-18T10:32:16.761Z,9.50
2018-05-18T10:33:17.348Z,9.70
2018-05-18T10:34:17.946Z,9.60
2018-05-18T10:35:18.533Z,9.70
2018-05-18T10:36:19.147Z,9.70
2018-05-18T10:37:19.723Z,9.10
2018-05-18T10:38:20.299Z,10.00
2018-05-18T10:39:20.888Z,9.70
2018-05-18T10:40:21.553Z,10.10
2018-05-18T10:41:22.166Z,9.60
2018-05-18T10:42:22.775Z,11.10
2018-05-18T10:43:23.400Z,10.40
2018-05-18T10:44:23.998Z,10.20
2018-05-18T10:45:24.654Z,11.00
2018-05-18T10:47:25.547Z,9.80
2018-05-18T10:49:26.529Z,9.80
2018-05-18T10:50:27.162Z,9.90
2018-05-18T10:51:27.746Z,9.60
2018-05-18T10:52:28.347Z,9.70
2018-05-18T10:53:28.936Z,9.70
2018-05-18T10:54:29.532Z,9.80
2018-05-18T10:55:30.106Z,10.70
2018-05-18T10:56:31.430Z,10.20
2018-05-18T10:57:32.133Z,9.50
2018-05-18T10:58:32.830Z,9.20
2018-05-18T10:59:33.988Z,9.70
2018-05-18T11:00:34.596Z,9.70
2018-05-18T11:01:35.271Z,10.60
2018-05-18T11:02:35.954Z,10.20
2018-05-18T11:03:37.101Z,9.70
2018-05-18T11:04:37.995Z,9.50
2018-05-18T11:06:38.901Z,9.60
2018-05-18T11:07:39.470Z,9.00
2018-05-18T11:08:40.082Z,8.70
2018-05-18T11:09:40.655Z,8.90
2018-05-18T11:10:41.260Z,9.00
2018-05-18T11:11:41.993Z,9.50
2018-05-18T11:12:42.652Z,9.20
2018-05-18T11:13:43.281Z,8.70
2018-05-18T11:14:43.912Z,9.40
2018-05-18T11:16:44.768Z,8.30
2018-05-18T11:17:45.359Z,10.50
2018-05-18T11:18:45.955Z,10.20
2018-05-18T11:19:46.502Z,10.20
2018-05-18T11:20:47.067Z,11.00
2018-05-18T11:21:47.690Z,10.00
2018-05-18T11:22:48.300Z,9.60
2018-05-18T11:24:49.611Z,10.80
2018-05-18T11:25:50.247Z,10.40
2018-05-18T11:26:50.883Z,10.10
2018-05-18T11:27:51.450Z,9.80
2018-05-18T11:28:52.062Z,10.60
2018-05-18T11:29:52.661Z,9.70
2018-05-18T11:30:53.230Z,10.30
2018-05-18T11:31:53.848Z,9.60
2018-05-18T11:32:54.465Z,10.00
2018-05-18T11:33:55.061Z,9.50
2018-05-18T11:34:55.732Z,10.00
2018-05-18T11:35:56.331Z,9.70
2018-05-18T11:36:56.978Z,9.20
2018-05-18T11:37:57.645Z,9.30
2018-05-18T11:38:58.235Z,9.30
2018-05-18T11:39:58.827Z,9.80
2018-05-18T11:41:00.148Z,10.00
2018-05-18T11:42:00.721Z,10.00
2018-05-18T11:43:01.345Z,10.00
2018-05-18T11:44:01.908Z,9.40
2018-05-18T11:45:02.525Z,10.60
2018-05-18T11:46:03.173Z,9.40
2018-05-18T11:47:03.766Z,10.10
2018-05-18T11:48:04.444Z,9.30
2018-05-18T11:49:04.998Z,9.30
2018-05-18T11:51:05.858Z,9.70
2018-05-18T11:52:06.522Z,9.60
2018-05-18T11:53:17.998Z,9.40
2018-05-18T11:54:18.610Z,9.40
2018-05-18T11:55:19.180Z,9.90
2018-05-18T11:56:19.831Z,10.00
2018-05-18T11:58:20.707Z,9.90
2018-05-18T11:59:21.305Z,10.00
2018-05-18T12:01:22.443Z,9.80
2018-05-18T12:03:23.318Z,9.40
2018-05-18T12:04:24.734Z,9.50
2018-05-18T12:06:25.566Z,9.30
2018-05-18T12:07:26.147Z,8.80
2018-05-18T12:08:26.769Z,9.70
2018-05-18T12:09:27.385Z,8.70
2018-05-18T12:10:27.997Z,9.30
2018-05-18T12:11:28.580Z,8.50
2018-05-18T12:12:29.163Z,9.40
2018-05-18T12:13:29.756Z,9.40
2018-05-18T12:14:30.388Z,10.40
2018-05-18T12:15:30.987Z,10.60
2018-05-18T12:16:31.766Z,10.90
2018-05-18T12:17:58.784Z,10.50
2018-05-18T12:19:03.155Z,10.20
2018-05-18T12:20:03.766Z,9.60
2018-05-18T12:21:04.386Z,9.80
2018-05-18T12:22:05.004Z,9.90
2018-05-18T12:23:05.620Z,9.70
2018-05-18T12:24:06.224Z,9.00
2018-05-18T12:25:18.530Z,9.00
2018-05-18T12:26:19.665Z,9.30
2018-05-18T12:27:20.263Z,9.90
2018-05-18T12:28:20.916Z,9.30
2018-05-18T12:29:21.605Z,9.50
2018-05-18T12:30:22.197Z,8.90
2018-05-18T12:31:22.858Z,10.90
2018-05-18T12:32:23.459Z,9.40
2018-05-18T12:33:24.272Z,9.00
2018-05-18T12:34:24.856Z,9.30
2018-05-18T12:35:25.439Z,8.70
2018-05-18T12:37:26.335Z,8.80
2018-05-18T12:38:27.101Z,8.90
2018-05-18T12:39:27.676Z,9.10
2018-05-18T12:40:28.272Z,8.60
2018-05-18T12:41:28.855Z,8.60
2018-05-18T12:42:29.471Z,8.60
2018-05-18T12:43:30.265Z,8.20
2018-05-18T12:44:30.961Z,7.90
2018-05-18T12:45:31.715Z,7.40
2018-05-18T12:46:32.397Z,8.40
2018-05-18T12:47:33.142Z,8.20
2018-05-18T12:48:33.749Z,8.30
2018-05-18T12:49:34.353Z,7.70
2018-05-18T12:50:34.986Z,8.60
2018-05-18T12:51:35.654Z,8.50
2018-05-18T12:52:37.349Z,8.10
2018-05-18T12:53:38.022Z,7.70
2018-05-18T12:54:38.733Z,7.60
2018-05-18T12:55:39.349Z,8.00
2018-05-18T12:56:39.974Z,8.30
2018-05-18T12:57:40.613Z,7.50
2018-05-18T12:58:41.335Z,8.10
2018-05-18T12:59:43.411Z,7.90
2018-05-18T13:00:44.028Z,7.40
2018-05-18T13:01:44.600Z,8.30
2018-05-18T13:02:45.181Z,7.90
2018-05-18T13:03:45.748Z,7.50
2018-05-18T13:04:46.350Z,7.90
2018-05-18T13:05:46.971Z,8.20
2018-05-18T13:06:47.639Z,7.70
2018-05-18T13:07:48.233Z,8.30
2018-05-18T13:08:48.844Z,7.70
2018-05-18T13:09:49.463Z,7.90
2018-05-18T13:10:50.076Z,7.80
2018-05-18T13:11:50.691Z,7.90
2018-05-18T13:12:51.315Z,8.50
2018-05-18T13:13:51.939Z,8.30
2018-05-18T13:14:52.583Z,7.70
2018-05-18T13:15:53.289Z,8.40
2018-05-18T13:16:53.963Z,7.30
2018-05-18T13:17:54.609Z,7.50
2018-05-18T13:18:55.219Z,6.80
2018-05-18T13:19:55.822Z,7.30
2018-05-18T13:20:56.454Z,7.80
2018-05-18T13:21:57.082Z,7.90
2018-05-18T13:22:57.695Z,7.80
2018-05-18T13:23:58.334Z,7.30
2018-05-18T13:24:59.007Z,7.30
2018-05-18T13:25:59.640Z,7.20
2018-05-18T13:27:00.341Z,6.70
2018-05-18T13:28:00.962Z,7.30
2018-05-18T13:29:01.623Z,6.60
2018-05-18T13:30:02.337Z,6.70
2018-05-18T13:31:02.942Z,7.70
2018-05-18T13:32:03.569Z,6.80
2018-05-18T13:33:04.406Z,6.60
2018-05-18T13:34:05.051Z,7.30
2018-05-18T13:35:05.736Z,6.50
2018-05-18T13:36:06.383Z,7.40
2018-05-18T13:37:07.020Z,7.00
2018-05-18T13:38:07.659Z,7.50
2018-05-18T13:39:08.273Z,7.20
2018-05-18T13:40:08.893Z,7.30
2018-05-18T13:41:09.714Z,7.00
2018-05-18T13:42:12.530Z,7.10
2018-05-18T13:43:14.796Z,7.20
2018-05-18T13:44:15.455Z,7.40
2018-05-18T13:45:16.090Z,7.40
2018-05-18T13:46:16.735Z,7.60
2018-05-18T13:47:17.379Z,7.50
2018-05-18T13:48:18.099Z,7.00
2018-05-18T13:49:18.705Z,7.90
2018-05-18T13:50:19.336Z,7.30
2018-05-18T13:51:19.978Z,7.70
2018-05-18T13:52:20.603Z,7.60
2018-05-18T13:53:21.211Z,7.80
2018-05-18T13:54:22.330Z,7.30
2018-05-18T13:55:23.025Z,7.60
2018-05-18T13:57:23.888Z,7.90
2018-05-18T13:58:25.182Z,7.80
2018-05-18T13:59:25.849Z,8.00
2018-05-18T14:00:26.442Z,6.80
2018-05-18T14:01:27.127Z,7.20
2018-05-18T14:02:27.762Z,7.00
2018-05-18T14:03:28.445Z,6.70
2018-05-18T14:04:29.066Z,6.80
2018-05-18T14:05:29.717Z,6.80
2018-05-18T14:06:30.322Z,6.50
2018-05-18T14:07:30.967Z,6.90
2018-05-18T14:08:31.551Z,6.70
2018-05-18T14:09:32.199Z,6.90
2018-05-18T14:10:32.789Z,7.20
2018-05-18T14:11:33.407Z,6.80
2018-05-18T14:12:34.091Z,5.70
2018-05-18T14:13:34.778Z,7.10
2018-05-18T14:14:35.432Z,7.60
2018-05-18T14:15:36.095Z,7.00
2018-05-18T14:16:36.679Z,7.00
2018-05-18T14:17:37.375Z,6.70
2018-05-18T14:18:38.285Z,6.80
2018-05-18T14:19:39.051Z,6.60
2018-05-18T14:20:39.655Z,6.40
2018-05-18T14:21:41.020Z,6.90
2018-05-18T14:22:41.653Z,6.00
2018-05-18T14:23:48.456Z,7.10
2018-05-18T14:24:51.445Z,6.50
2018-05-18T14:25:52.053Z,7.30
2018-05-18T14:26:53.284Z,7.00
2018-05-18T14:27:53.964Z,7.20
2018-05-18T14:28:54.582Z,6.70
2018-05-18T14:29:55.206Z,7.00
2018-05-18T14:30:55.836Z,6.70
2018-05-18T14:31:57.012Z,6.10
2018-05-18T14:32:57.753Z,6.50
2018-05-18T14:33:59.221Z,5.90
2018-05-18T14:34:59.821Z,6.50
2018-05-18T14:36:00.456Z,6.40
2018-05-18T14:37:01.200Z,5.90
2018-05-18T14:38:02.045Z,5.50
2018-05-18T14:39:04.732Z,6.60
2018-05-18T14:40:05.456Z,6.70
2018-05-18T14:41:06.155Z,6.20
2018-05-18T14:42:06.798Z,6.30
2018-05-18T14:43:07.413Z,5.90
2018-05-18T14:44:08.047Z,6.60
2018-05-18T14:45:08.659Z,6.40
2018-05-18T14:46:09.289Z,5.80
2018-05-18T14:47:09.898Z,6.40
2018-05-18T14:48:10.510Z,5.70
2018-05-18T14:49:11.110Z,6.90
2018-05-18T14:50:11.741Z,6.40
2018-05-18T14:51:12.403Z,6.80
2018-05-18T14:52:13.053Z,6.70
2018-05-18T14:53:13.713Z,6.50
2018-05-18T14:54:14.333Z,6.60
2018-05-18T14:55:15.038Z,5.90
2018-05-18T14:56:15.624Z,6.50
2018-05-18T14:57:16.227Z,6.10
2018-05-18T14:58:16.899Z,6.10
2018-05-18T14:59:17.518Z,6.40
2018-05-18T15:00:18.133Z,6.10
2018-05-18T15:01:18.735Z,6.20
2018-05-18T15:02:19.332Z,6.50
2018-05-18T15:03:19.965Z,6.20
2018-05-18T15:04:20.603Z,6.30
2018-05-18T15:05:21.800Z,6.20
2018-05-18T15:06:22.470Z,7.00
2018-05-18T15:07:23.085Z,6.50
2018-05-18T15:08:23.784Z,6.50
2018-05-18T15:09:24.449Z,6.40
2018-05-18T15:10:25.115Z,6.70
2018-05-18T15:11:25.746Z,6.40
2018-05-18T15:12:26.403Z,6.10
2018-05-18T15:13:26.999Z,6.20
2018-05-18T15:14:27.634Z,7.10
2018-05-18T15:15:28.338Z,6.60
2018-05-18T15:16:29.006Z,5.90
2018-05-18T15:17:30.558Z,6.40
2018-05-18T15:18:31.246Z,5.90
2018-05-18T15:19:31.865Z,6.30
2018-05-18T15:20:33.278Z,6.00
2018-05-18T15:22:34.186Z,5.90
2018-05-18T15:23:34.818Z,6.70
2018-05-18T15:24:35.483Z,6.50
2018-05-18T15:25:36.197Z,6.10
2018-05-18T15:26:36.822Z,6.60
2018-05-18T15:27:38.224Z,6.30
2018-05-18T15:28:38.909Z,6.20
2018-05-18T15:29:39.521Z,6.60
2018-05-18T15:30:40.144Z,6.30
2018-05-18T15:32:41.125Z,6.50
2018-05-18T15:33:41.729Z,6.00
2018-05-18T15:34:42.378Z,5.70
2018-05-18T15:35:43.051Z,6.20
2018-05-18T15:36:43.695Z,6.10
2018-05-18T15:37:44.338Z,6.40
2018-05-18T15:39:45.260Z,5.90
2018-05-18T15:40:45.875Z,5.70
2018-05-18T15:41:46.507Z,6.30
2018-05-18T15:42:47.220Z,6.50
2018-05-18T15:43:47.803Z,6.10
2018-05-18T15:44:48.468Z,5.80
2018-05-18T15:45:49.071Z,6.60
2018-05-18T15:46:49.662Z,5.90
2018-05-18T15:47:50.253Z,6.40
2018-05-18T15:48:50.896Z,6.20
2018-05-18T15:49:57.732Z,6.10
2018-05-18T15:51:58.719Z,6.70
2018-05-18T15:52:59.344Z,6.40
2018-05-18T15:53:59.919Z,5.60
2018-05-18T15:55:00.530Z,5.60
2018-05-18T15:57:03.543Z,5.80
2018-05-18T15:58:04.118Z,6.60
2018-05-18T15:59:04.731Z,6.80
2018-05-18T16:00:05.353Z,6.80
2018-05-18T16:01:06.413Z,6.20
2018-05-18T16:02:08.128Z,6.50
2018-05-18T16:03:08.740Z,6.60
2018-05-18T16:04:10.030Z,6.00
2018-05-18T16:05:10.688Z,6.60
2018-05-18T16:06:11.332Z,5.50
2018-05-18T16:07:11.978Z,6.00
2018-05-18T16:08:12.586Z,6.30
2018-05-18T16:09:13.199Z,5.90
2018-05-18T16:10:13.878Z,6.60
2018-05-18T16:11:15.557Z,6.30
2018-05-18T16:12:16.176Z,6.60
2018-05-18T16:13:16.841Z,6.80
2018-05-18T16:14:17.447Z,6.20
2018-05-18T16:15:18.089Z,6.60
2018-05-18T16:16:18.740Z,6.30
2018-05-18T16:17:19.340Z,6.10
2018-05-18T16:18:19.972Z,6.90
2018-05-18T16:19:20.554Z,5.90
2018-05-18T16:20:21.162Z,5.90
2018-05-18T16:21:21.846Z,5.70
2018-05-18T16:22:22.534Z,6.30
2018-05-18T16:23:23.109Z,5.60
2018-05-18T16:24:23.698Z,6.80
2018-05-18T16:25:24.400Z,6.30
2018-05-18T16:26:25.213Z,6.50
2018-05-18T16:27:25.912Z,6.20
2018-05-18T16:28:26.475Z,6.50
2018-05-18T16:29:27.165Z,5.80
2018-05-18T16:30:27.921Z,6.10
2018-05-18T16:31:28.561Z,6.30
2018-05-18T16:32:29.195Z,5.60
2018-05-18T16:33:29.825Z,6.30
2018-05-18T16:34:30.469Z,6.80
2018-05-18T16:35:31.108Z,6.40
2018-05-18T16:36:31.740Z,5.40
2018-05-18T16:37:32.395Z,6.10
2018-05-18T16:38:33.247Z,5.70
2018-05-18T16:39:33.919Z,6.10
2018-05-18T16:40:34.608Z,6.00
2018-05-18T16:41:35.250Z,6.00
2018-05-18T16:42:35.928Z,5.40
2018-05-18T16:43:36.536Z,6.10
2018-05-18T16:44:37.245Z,6.10
2018-05-18T16:45:37.845Z,6.20
2018-05-18T16:46:38.453Z,6.00
2018-05-18T16:48:39.459Z,6.60
2018-05-18T16:49:40.142Z,6.20
2018-05-18T16:50:40.776Z,6.20
2018-05-18T16:51:41.401Z,6.70
2018-05-18T16:52:42.213Z,6.70
2018-05-18T16:53:42.881Z,6.50
2018-05-18T16:54:43.465Z,7.00
2018-05-18T16:55:44.234Z,7.00
2018-05-18T16:56:44.950Z,6.80
2018-05-18T16:57:45.532Z,6.60
2018-05-18T16:58:46.204Z,7.10
2018-05-18T16:59:46.809Z,6.10
2018-05-18T17:00:47.554Z,6.40
2018-05-18T17:01:48.200Z,6.40
2018-05-18T17:02:49.399Z,6.00
2018-05-18T17:03:50.061Z,6.20
2018-05-18T17:04:51.581Z,6.20
2018-05-18T17:05:52.309Z,5.90
2018-05-18T17:06:52.944Z,5.90
2018-05-18T17:07:53.589Z,6.50
2018-05-18T17:08:54.210Z,7.20
2018-05-18T17:09:54.907Z,5.70
2018-05-18T17:10:55.571Z,6.40
2018-05-18T17:11:56.182Z,6.60
2018-05-18T17:13:01.068Z,6.90
2018-05-18T17:14:01.762Z,6.90
2018-05-18T17:15:02.804Z,6.90
2018-05-18T17:16:03.466Z,6.40
2018-05-18T17:17:04.116Z,6.70
2018-05-18T17:18:04.720Z,6.10
2018-05-18T17:19:05.309Z,6.40
2018-05-18T17:20:06.157Z,6.30
2018-05-18T17:21:06.878Z,5.90
2018-05-18T17:22:18.359Z,6.30
2018-05-18T17:23:19.047Z,6.90
2018-05-18T17:24:19.661Z,6.80
2018-05-18T17:25:20.255Z,6.30
2018-05-18T17:26:20.866Z,5.90
2018-05-18T17:27:21.500Z,6.10
2018-05-18T17:28:22.169Z,6.60
2018-05-18T17:30:23.019Z,6.70
2018-05-18T17:31:23.729Z,6.70
2018-05-18T17:32:24.384Z,7.70
2018-05-18T17:33:24.982Z,8.10
2018-05-18T17:34:25.636Z,6.60
2018-05-18T17:35:27.064Z,9.50
2018-05-18T17:36:27.668Z,9.80
2018-05-18T17:37:28.278Z,11.40
2018-05-18T17:38:29.816Z,9.40
2018-05-18T17:39:30.459Z,6.50
2018-05-18T17:40:31.064Z,6.40
2018-05-18T17:41:31.738Z,5.70
2018-05-18T17:42:32.340Z,5.90
2018-05-18T17:43:33.043Z,6.10
2018-05-18T17:44:34.153Z,5.80
2018-05-18T17:45:34.775Z,6.00
